createdAt,value
2018-07-31T00:02:00.072Z,23.20
2018-07-31T00:04:29.038Z,23.10
2018-07-31T00:06:58.031Z,23.00
2018-07-31T00:09:27.034Z,22.90
2018-07-31T00:11:55.929Z,22.90
2018-07-31T00:14:24.827Z,22.80
2018-07-31T00:16:54.014Z,22.70
2018-07-31T00:19:22.914Z,22.60
2018-07-31T00:21:51.949Z,22.50
2018-07-31T00:24:20.874Z,22.40
2018-07-31T00:26:50.043Z,22.30
2018-07-31T00:29:18.969Z,22.20
2018-07-31T00:36:44.952Z,22.30
2018-07-31T00:39:13.966Z,22.30
2018-07-31T00:41:42.989Z,22.30
2018-07-31T00:44:11.974Z,22.30
2018-07-31T00:46:40.997Z,22.20
2018-07-31T00:49:10.141Z,22.20
2018-07-31T00:51:39.033Z,22.00
2018-07-31T00:54:07.934Z,22.00
2018-07-31T00:56:36.882Z,21.90
2018-07-31T00:59:06.214Z,21.90
2018-07-31T01:01:35.157Z,21.90
2018-07-31T01:04:04.096Z,22.00
2018-07-31T01:06:37.242Z,21.90
2018-07-31T01:09:08.999Z,21.70
2018-07-31T01:11:38.118Z,21.70
2018-07-31T01:14:08.031Z,21.60
2018-07-31T01:16:37.977Z,21.50
2018-07-31T01:19:07.382Z,21.40
2018-07-31T01:21:36.489Z,21.30
2018-07-31T01:24:05.614Z,21.30
2018-07-31T01:26:34.574Z,21.20
2018-07-31T01:29:03.522Z,21.20
2018-07-31T01:31:32.433Z,21.20
2018-07-31T01:34:01.351Z,21.20
2018-07-31T01:36:30.291Z,21.10
2018-07-31T01:38:59.213Z,21.00
2018-07-31T01:41:28.109Z,21.10
2018-07-31T01:43:57.009Z,21.00
2018-07-31T01:46:25.925Z,21.00
2018-07-31T01:48:54.859Z,20.90
2018-07-31T01:51:23.766Z,20.70
2018-07-31T01:53:52.699Z,20.90
2018-07-31T01:56:21.666Z,21.00
2018-07-31T01:58:50.577Z,20.90
2018-07-31T02:01:19.477Z,20.80
2018-07-31T02:03:48.412Z,20.80
2018-07-31T02:06:17.357Z,20.80
2018-07-31T02:08:46.243Z,20.80
2018-07-31T02:11:15.155Z,20.80
2018-07-31T02:13:44.052Z,20.70
2018-07-31T02:16:12.983Z,20.70
2018-07-31T02:18:41.850Z,20.70
2018-07-31T02:21:10.739Z,20.70
2018-07-31T02:23:39.623Z,20.70
2018-07-31T02:26:08.570Z,20.50
2018-07-31T02:28:37.475Z,20.50
2018-07-31T02:31:06.604Z,20.50
2018-07-31T02:33:35.534Z,20.40
2018-07-31T02:36:04.638Z,20.30
2018-07-31T02:38:33.561Z,20.30
2018-07-31T02:41:02.510Z,20.30
2018-07-31T02:43:31.425Z,20.20
2018-07-31T02:46:00.350Z,20.20
2018-07-31T02:48:29.266Z,20.30
2018-07-31T02:50:58.159Z,20.30
2018-07-31T02:53:27.168Z,20.20
2018-07-31T02:55:56.070Z,20.30
2018-07-31T02:58:24.975Z,20.30
2018-07-31T03:00:54.968Z,20.20
2018-07-31T03:03:23.874Z,20.00
2018-07-31T03:05:53.037Z,19.90
2018-07-31T03:08:21.971Z,19.80
2018-07-31T03:10:50.850Z,19.80
2018-07-31T03:13:19.803Z,19.80
2018-07-31T03:15:48.692Z,19.80
2018-07-31T03:18:17.618Z,19.80
2018-07-31T03:20:46.522Z,19.80
2018-07-31T03:23:15.402Z,19.80
2018-07-31T03:25:44.299Z,19.90
2018-07-31T03:28:13.419Z,19.90
2018-07-31T03:30:42.292Z,19.70
2018-07-31T03:35:39.697Z,19.90
2018-07-31T03:38:08.613Z,19.90
2018-07-31T03:40:37.527Z,19.90
2018-07-31T03:43:06.469Z,19.80
2018-07-31T03:45:35.302Z,19.80
2018-07-31T03:48:04.234Z,19.90
2018-07-31T03:50:33.120Z,20.00
2018-07-31T03:53:02.063Z,20.00
2018-07-31T03:55:31.002Z,20.10
2018-07-31T03:57:59.878Z,20.00
2018-07-31T04:00:28.777Z,20.00
2018-07-31T04:02:57.687Z,19.90
2018-07-31T04:05:26.624Z,19.90
2018-07-31T04:07:55.482Z,19.90
2018-07-31T04:10:24.418Z,19.90
2018-07-31T04:12:53.365Z,19.80
2018-07-31T04:15:22.257Z,19.80
2018-07-31T04:17:54.725Z,19.80
2018-07-31T04:20:23.754Z,19.90
2018-07-31T04:22:52.916Z,19.90
2018-07-31T04:25:22.026Z,19.80
2018-07-31T04:27:51.042Z,19.80
2018-07-31T04:30:19.918Z,19.90
2018-07-31T04:32:48.826Z,19.90
2018-07-31T04:35:17.730Z,19.90
2018-07-31T04:37:46.722Z,20.00
2018-07-31T04:40:15.633Z,20.10
2018-07-31T04:42:44.545Z,20.00
2018-07-31T04:45:13.462Z,19.90
2018-07-31T04:47:42.410Z,19.90
2018-07-31T04:50:11.341Z,20.00
2018-07-31T04:52:40.386Z,20.10
2018-07-31T04:55:09.279Z,20.10
2018-07-31T04:57:38.426Z,20.30
2018-07-31T05:00:08.836Z,20.40
2018-07-31T05:02:38.554Z,20.50
2018-07-31T05:05:07.473Z,20.60
2018-07-31T05:07:39.344Z,20.60
2018-07-31T05:10:11.802Z,20.60
2018-07-31T05:12:41.815Z,20.70
2018-07-31T05:15:10.750Z,20.70
2018-07-31T05:17:40.237Z,20.90
2018-07-31T05:20:10.521Z,21.00
2018-07-31T05:22:40.650Z,21.00
2018-07-31T05:25:09.751Z,21.10
2018-07-31T05:27:40.786Z,21.30
2018-07-31T05:30:10.971Z,21.40
2018-07-31T05:32:40.323Z,21.50
2018-07-31T05:35:09.874Z,21.50
2018-07-31T05:37:38.968Z,21.70
2018-07-31T05:40:08.846Z,21.80
2018-07-31T05:42:37.906Z,22.00
2018-07-31T05:45:07.317Z,22.00
2018-07-31T05:47:37.422Z,22.10
2018-07-31T05:50:06.926Z,22.30
2018-07-31T05:52:35.834Z,22.40
2018-07-31T05:55:05.402Z,22.50
2018-07-31T05:57:34.623Z,22.70
2018-07-31T06:00:04.078Z,22.80
2018-07-31T06:05:01.515Z,23.00
2018-07-31T06:07:30.446Z,23.20
2018-07-31T06:09:59.382Z,23.40
2018-07-31T06:12:28.298Z,23.50
2018-07-31T06:14:57.232Z,23.70
2018-07-31T06:17:26.162Z,23.80
2018-07-31T06:19:55.022Z,23.90
2018-07-31T06:22:23.882Z,24.00
2018-07-31T06:24:53.044Z,24.10
2018-07-31T06:27:22.047Z,24.20
2018-07-31T06:29:51.061Z,24.30
2018-07-31T06:32:19.970Z,24.40
2018-07-31T06:34:48.904Z,24.50
2018-07-31T06:37:17.785Z,24.60
2018-07-31T06:39:46.690Z,24.70
2018-07-31T06:42:15.570Z,24.70
2018-07-31T06:44:44.449Z,24.80
2018-07-31T06:47:13.330Z,25.00
2018-07-31T06:49:42.258Z,25.20
2018-07-31T06:54:39.674Z,25.40
2018-07-31T06:57:08.541Z,25.50
2018-07-31T06:59:37.430Z,25.50
2018-07-31T07:02:06.771Z,25.60
2018-07-31T07:04:35.597Z,25.80
2018-07-31T07:07:04.525Z,25.90
2018-07-31T07:09:33.487Z,26.00
2018-07-31T07:12:02.351Z,26.20
2018-07-31T07:14:31.254Z,26.30
2018-07-31T07:17:00.119Z,26.50
2018-07-31T07:19:29.077Z,26.60
2018-07-31T07:21:57.974Z,26.70
2018-07-31T07:24:26.858Z,26.80
2018-07-31T07:26:55.718Z,26.90
2018-07-31T07:29:24.642Z,27.00
2018-07-31T07:31:53.546Z,27.10
2018-07-31T07:34:22.442Z,27.20
2018-07-31T07:36:51.350Z,27.40
2018-07-31T07:39:20.241Z,27.60
2018-07-31T07:41:49.139Z,27.80
2018-07-31T07:44:18.062Z,27.80
2018-07-31T07:46:46.975Z,27.80
2018-07-31T07:49:15.984Z,27.90
2018-07-31T07:51:44.866Z,27.90
2018-07-31T07:54:13.951Z,28.10
2018-07-31T07:56:42.691Z,28.20
2018-07-31T07:59:11.682Z,28.40
2018-07-31T08:01:40.557Z,28.40
2018-07-31T08:04:10.022Z,28.50
2018-07-31T08:06:38.838Z,28.70
2018-07-31T08:09:09.074Z,28.80
2018-07-31T08:11:38.003Z,28.90
2018-07-31T08:14:07.990Z,29.10
2018-07-31T08:16:36.887Z,29.20
2018-07-31T08:19:05.802Z,29.30
2018-07-31T08:21:34.842Z,29.40
2018-07-31T08:24:04.009Z,29.50
2018-07-31T08:26:32.945Z,29.70
2018-07-31T08:29:01.870Z,29.80
2018-07-31T08:31:30.800Z,29.90
2018-07-31T08:33:59.719Z,30.10
2018-07-31T08:36:28.674Z,30.30
2018-07-31T08:38:57.965Z,30.40
2018-07-31T08:41:26.865Z,30.50
2018-07-31T08:43:55.896Z,30.60
2018-07-31T08:46:25.043Z,30.70
2018-07-31T08:48:54.098Z,30.80
2018-07-31T08:51:25.142Z,30.90
2018-07-31T08:53:54.005Z,30.90
2018-07-31T08:56:22.905Z,31.10
2018-07-31T08:58:51.993Z,31.10
2018-07-31T09:01:20.894Z,31.30
2018-07-31T09:03:49.802Z,31.40
2018-07-31T09:06:18.745Z,31.50
2018-07-31T09:11:16.162Z,31.80
2018-07-31T09:16:13.590Z,31.90
2018-07-31T09:18:42.470Z,32.00
2018-07-31T09:21:11.438Z,32.10
2018-07-31T09:23:40.350Z,32.10
2018-07-31T09:26:09.251Z,32.20
2018-07-31T09:28:38.118Z,32.20
2018-07-31T09:31:14.184Z,32.40
2018-07-31T09:33:43.614Z,32.60
2018-07-31T09:36:12.621Z,32.70
2018-07-31T09:38:41.510Z,32.70
2018-07-31T09:41:10.418Z,32.80
2018-07-31T09:43:39.306Z,33.00
2018-07-31T09:46:08.238Z,33.10
2018-07-31T09:48:37.138Z,33.00
2018-07-31T09:51:07.210Z,33.10
2018-07-31T09:53:36.142Z,33.30
2018-07-31T09:56:05.126Z,33.40
2018-07-31T09:58:34.026Z,33.60
2018-07-31T10:01:08.494Z,33.50
2018-07-31T10:03:37.531Z,33.50
2018-07-31T10:06:06.516Z,33.70
2018-07-31T10:08:35.434Z,33.90
2018-07-31T10:11:04.350Z,34.00
2018-07-31T10:13:33.227Z,34.00
2018-07-31T10:16:02.180Z,34.00
2018-07-31T10:18:31.062Z,34.00
2018-07-31T10:21:00.019Z,34.00
2018-07-31T10:23:28.930Z,34.10
2018-07-31T10:25:57.821Z,34.10
2018-07-31T10:28:26.757Z,34.30
2018-07-31T10:30:55.867Z,34.30
2018-07-31T10:33:26.098Z,34.50
2018-07-31T10:35:55.015Z,34.60
2018-07-31T10:38:23.993Z,34.60
2018-07-31T10:40:52.885Z,34.90
2018-07-31T10:43:21.770Z,35.30
2018-07-31T10:45:50.699Z,35.50
2018-07-31T10:48:19.582Z,35.60
2018-07-31T10:50:48.649Z,35.60
2018-07-31T10:53:17.559Z,35.60
2018-07-31T10:55:46.442Z,35.80
2018-07-31T10:58:15.407Z,35.80
2018-07-31T11:00:44.262Z,35.80
2018-07-31T11:03:13.241Z,36.00
2018-07-31T11:05:42.086Z,36.00
2018-07-31T11:08:10.978Z,35.80
2018-07-31T11:10:40.021Z,36.70
2018-07-31T11:13:08.955Z,35.90
2018-07-31T11:15:37.838Z,36.20
2018-07-31T11:18:06.794Z,36.30
2018-07-31T11:20:35.926Z,36.40
2018-07-31T11:23:04.830Z,36.60
2018-07-31T11:25:33.790Z,36.60
2018-07-31T11:28:02.727Z,36.80
2018-07-31T11:30:31.605Z,36.90
2018-07-31T11:33:00.565Z,36.60
2018-07-31T11:35:29.432Z,36.80
2018-07-31T11:37:58.426Z,36.40
2018-07-31T11:40:27.522Z,36.50
2018-07-31T11:42:56.416Z,36.70
2018-07-31T11:45:25.340Z,37.10
2018-07-31T11:47:54.357Z,37.50
2018-07-31T11:50:23.214Z,37.20
2018-07-31T11:52:52.205Z,37.50
2018-07-31T11:55:21.114Z,37.70
2018-07-31T12:00:18.535Z,37.50
2018-07-31T12:02:47.430Z,37.40
2018-07-31T12:05:16.313Z,37.40
2018-07-31T12:07:45.266Z,37.70
2018-07-31T12:10:14.183Z,38.10
2018-07-31T12:12:43.058Z,38.20
2018-07-31T12:15:11.952Z,38.40
2018-07-31T12:17:40.846Z,38.40
2018-07-31T12:20:09.774Z,38.50
2018-07-31T12:22:38.799Z,38.50
2018-07-31T12:25:07.674Z,38.80
2018-07-31T12:27:36.657Z,39.10
2018-07-31T12:30:08.116Z,38.80
2018-07-31T12:32:37.071Z,38.90
2018-07-31T12:35:06.062Z,39.00
2018-07-31T12:37:35.234Z,38.90
2018-07-31T12:40:05.202Z,38.50
2018-07-31T12:42:34.174Z,36.50
2018-07-31T12:45:03.225Z,37.80
2018-07-31T12:47:32.303Z,38.00
2018-07-31T12:50:01.261Z,38.60
2018-07-31T12:52:30.312Z,39.00
2018-07-31T12:54:59.213Z,39.50
2018-07-31T12:57:28.553Z,39.20
2018-07-31T12:59:57.480Z,39.00
2018-07-31T13:02:26.510Z,39.10
2018-07-31T13:04:55.497Z,39.40
2018-07-31T13:07:24.446Z,39.50
2018-07-31T13:09:53.315Z,39.50
2018-07-31T13:12:22.229Z,39.50
2018-07-31T13:14:51.142Z,39.40
2018-07-31T13:17:20.051Z,39.40
2018-07-31T13:19:49.006Z,39.60
2018-07-31T13:22:18.199Z,39.70
2018-07-31T13:27:15.750Z,39.80
2018-07-31T13:29:44.938Z,40.40
2018-07-31T13:32:13.831Z,40.60
2018-07-31T13:34:42.854Z,40.70
2018-07-31T13:37:11.805Z,40.90
2018-07-31T13:39:40.902Z,41.40
2018-07-31T13:42:09.842Z,41.40
2018-07-31T13:44:38.736Z,41.30
2018-07-31T13:47:07.619Z,41.50
2018-07-31T13:52:05.090Z,41.90
2018-07-31T13:54:34.017Z,41.60
2018-07-31T13:57:02.898Z,41.50
2018-07-31T13:59:31.906Z,41.60
2018-07-31T14:02:00.793Z,41.80
2018-07-31T14:04:29.704Z,41.70
2018-07-31T14:06:58.699Z,41.60
2018-07-31T14:09:27.525Z,41.50
2018-07-31T14:11:56.435Z,41.50
2018-07-31T14:14:25.526Z,41.80
2018-07-31T14:16:54.538Z,41.90
2018-07-31T14:19:23.441Z,41.60
2018-07-31T14:21:52.346Z,41.90
2018-07-31T14:24:21.273Z,42.10
2018-07-31T14:26:50.346Z,42.10
2018-07-31T14:29:19.998Z,42.40
2018-07-31T14:31:48.890Z,42.30
2018-07-31T14:34:17.795Z,42.40
2018-07-31T14:36:46.671Z,42.60
2018-07-31T14:39:15.542Z,42.30
2018-07-31T14:41:44.419Z,42.40
2018-07-31T14:44:13.381Z,42.50
2018-07-31T14:46:42.262Z,42.20
2018-07-31T14:49:11.158Z,42.40
2018-07-31T14:51:40.031Z,42.80
2018-07-31T14:54:08.954Z,42.60
2018-07-31T14:56:37.982Z,42.70
2018-07-31T14:59:06.907Z,42.70
2018-07-31T15:01:36.015Z,42.40
2018-07-31T15:04:04.954Z,42.60
2018-07-31T15:06:33.909Z,42.90
2018-07-31T15:09:03.245Z,43.20
2018-07-31T15:11:32.146Z,43.70
2018-07-31T15:14:01.150Z,43.60
2018-07-31T15:16:30.216Z,43.40
2018-07-31T15:18:59.384Z,43.40
2018-07-31T15:21:28.522Z,43.30
2018-07-31T15:23:57.819Z,43.10
2018-07-31T15:26:26.720Z,43.20
2018-07-31T15:28:55.690Z,43.40
2018-07-31T15:31:24.530Z,43.60
2018-07-31T15:33:53.890Z,44.10
2018-07-31T15:36:22.802Z,43.60
2018-07-31T15:38:51.870Z,43.40
2018-07-31T15:41:20.829Z,43.40
2018-07-31T15:46:18.227Z,43.60
2018-07-31T15:48:47.113Z,43.70
2018-07-31T15:51:15.970Z,44.00
2018-07-31T15:53:44.874Z,43.60
2018-07-31T15:56:13.786Z,43.40
2018-07-31T15:58:42.697Z,43.50
2018-07-31T16:01:11.762Z,43.70
2018-07-31T16:03:40.706Z,43.20
2018-07-31T16:06:09.570Z,43.20
2018-07-31T16:08:38.499Z,43.50
2018-07-31T16:11:07.382Z,43.30
2018-07-31T16:13:36.337Z,43.10
2018-07-31T16:16:05.274Z,43.40
2018-07-31T16:18:34.178Z,43.20
2018-07-31T16:21:03.099Z,43.40
2018-07-31T16:23:32.012Z,43.30
2018-07-31T16:26:00.944Z,44.00
2018-07-31T16:28:29.928Z,44.00
2018-07-31T16:30:58.810Z,43.80
2018-07-31T16:33:27.863Z,44.10
2018-07-31T16:35:56.768Z,43.90
2018-07-31T16:38:25.667Z,43.20
2018-07-31T16:40:54.538Z,43.40
2018-07-31T16:43:23.458Z,43.60
2018-07-31T16:45:52.370Z,44.10
2018-07-31T16:48:21.246Z,44.40
2018-07-31T16:50:51.021Z,44.00
2018-07-31T16:53:19.922Z,43.80
2018-07-31T16:55:48.855Z,43.90
2018-07-31T16:58:17.711Z,44.40
2018-07-31T17:00:46.626Z,44.00
2018-07-31T17:03:15.489Z,43.90
2018-07-31T17:05:44.385Z,44.10
2018-07-31T17:08:13.291Z,43.40
2018-07-31T17:10:42.315Z,42.90
2018-07-31T17:13:11.201Z,42.80
2018-07-31T17:15:40.098Z,42.50
2018-07-31T17:18:09.230Z,42.50
2018-07-31T17:20:38.153Z,42.50
2018-07-31T17:23:07.066Z,41.70
2018-07-31T17:25:35.962Z,41.50
2018-07-31T17:28:04.859Z,40.50
2018-07-31T17:30:33.823Z,39.50
2018-07-31T17:33:02.899Z,38.50
2018-07-31T17:35:31.807Z,38.00
2018-07-31T17:38:00.990Z,37.40
2018-07-31T17:40:29.914Z,36.90
2018-07-31T17:42:58.816Z,36.30
2018-07-31T17:45:27.757Z,35.90
2018-07-31T17:47:56.777Z,35.40
2018-07-31T17:50:25.682Z,35.20
2018-07-31T17:52:54.582Z,35.00
2018-07-31T17:55:23.494Z,34.90
2018-07-31T17:57:52.559Z,34.80
2018-07-31T18:00:21.450Z,34.60
2018-07-31T18:05:18.886Z,34.30
2018-07-31T18:07:47.769Z,34.10
2018-07-31T18:10:16.654Z,34.00
2018-07-31T18:12:45.534Z,33.90
2018-07-31T18:15:14.454Z,33.80
2018-07-31T18:17:43.349Z,33.60
2018-07-31T18:20:12.250Z,33.50
2018-07-31T18:22:41.157Z,33.40
2018-07-31T18:25:10.082Z,33.30
2018-07-31T18:27:39.042Z,33.20
2018-07-31T18:30:07.938Z,33.10
2018-07-31T18:32:36.836Z,33.00
2018-07-31T18:35:05.948Z,32.80
2018-07-31T18:37:35.261Z,32.70
2018-07-31T18:40:04.594Z,32.70
2018-07-31T18:42:33.507Z,32.60
2018-07-31T18:45:02.406Z,32.50
2018-07-31T18:47:31.291Z,32.30
2018-07-31T18:50:00.234Z,32.30
2018-07-31T18:52:29.142Z,32.30
2018-07-31T18:54:58.086Z,32.30
2018-07-31T18:57:27.160Z,32.10
2018-07-31T18:59:56.099Z,32.10
2018-07-31T19:02:25.007Z,31.90
2018-07-31T19:04:53.932Z,31.90
2018-07-31T19:07:22.933Z,31.90
2018-07-31T19:09:51.852Z,31.80
2018-07-31T19:12:20.803Z,31.70
2018-07-31T19:14:49.722Z,31.70
2018-07-31T19:17:18.636Z,31.60
2018-07-31T19:19:47.557Z,31.50
2018-07-31T19:22:16.440Z,31.50
2018-07-31T19:24:45.338Z,31.40
2018-07-31T19:27:14.244Z,31.40
2018-07-31T19:29:43.288Z,31.30
2018-07-31T19:32:12.165Z,31.20
2018-07-31T19:34:41.106Z,31.20
2018-07-31T19:37:10.078Z,31.20
2018-07-31T19:39:39.011Z,31.20
2018-07-31T19:42:08.210Z,31.20
2018-07-31T19:44:37.082Z,31.20
2018-07-31T19:47:05.985Z,31.10
2018-07-31T19:49:35.012Z,30.90
2018-07-31T19:52:04.050Z,30.80
2018-07-31T19:54:32.948Z,30.60
2018-07-31T19:57:01.938Z,30.60
2018-07-31T19:59:30.860Z,30.60
2018-07-31T20:01:59.763Z,30.50
2018-07-31T20:04:28.942Z,30.50
2018-07-31T20:06:57.946Z,30.40
2018-07-31T20:09:28.441Z,30.30
2018-07-31T20:11:58.124Z,30.20
2018-07-31T20:14:27.054Z,30.10
2018-07-31T20:16:56.031Z,30.00
2018-07-31T20:19:25.109Z,30.00
2018-07-31T20:21:54.103Z,29.90
2018-07-31T20:24:23.162Z,29.90
2018-07-31T20:26:52.183Z,29.70
2018-07-31T20:29:21.082Z,29.60
2018-07-31T20:31:50.098Z,29.50
2018-07-31T20:34:19.055Z,29.40
2018-07-31T20:36:47.979Z,29.20
2018-07-31T20:39:17.126Z,29.10
2018-07-31T20:41:46.157Z,29.00
2018-07-31T20:44:15.032Z,29.00
2018-07-31T20:46:44.066Z,29.00
2018-07-31T20:49:13.036Z,29.10
2018-07-31T20:51:42.186Z,29.20
2018-07-31T20:54:11.212Z,28.90
2018-07-31T20:56:40.264Z,28.80
2018-07-31T20:59:09.690Z,28.80
2018-07-31T21:01:38.638Z,28.80
2018-07-31T21:04:07.578Z,28.80
2018-07-31T21:06:36.599Z,28.60
2018-07-31T21:09:08.498Z,28.60
2018-07-31T21:11:37.367Z,28.50
2018-07-31T21:14:06.378Z,28.50
2018-07-31T21:16:35.394Z,28.40
2018-07-31T21:19:04.410Z,28.40
2018-07-31T21:24:01.846Z,28.30
2018-07-31T21:26:30.756Z,28.20
2018-07-31T21:28:59.934Z,28.10
2018-07-31T21:33:57.337Z,28.10
2018-07-31T21:36:26.288Z,28.10
2018-07-31T21:38:56.307Z,28.00
2018-07-31T21:41:25.237Z,28.00
2018-07-31T21:43:54.080Z,28.00
2018-07-31T21:46:22.974Z,28.00
2018-07-31T21:48:52.258Z,27.90
2018-07-31T21:51:21.178Z,27.80
2018-07-31T21:53:50.063Z,27.60
2018-07-31T21:56:19.066Z,27.50
2018-07-31T21:58:48.098Z,27.30
2018-07-31T22:01:17.059Z,27.20
2018-07-31T22:03:45.918Z,27.20
2018-07-31T22:06:14.814Z,27.20
2018-07-31T22:08:43.734Z,27.10
2018-07-31T22:13:41.197Z,27.10
2018-07-31T22:16:10.167Z,27.10
2018-07-31T22:18:39.026Z,27.00
2018-07-31T22:21:07.960Z,27.00
2018-07-31T22:23:36.833Z,26.90
2018-07-31T22:28:34.315Z,26.90
2018-07-31T22:31:03.286Z,26.70
2018-07-31T22:33:32.186Z,26.60
2018-07-31T22:36:01.083Z,26.50
2018-07-31T22:38:29.981Z,26.50
2018-07-31T22:40:58.874Z,26.30
2018-07-31T22:43:27.770Z,26.20
2018-07-31T22:45:56.677Z,26.10
2018-07-31T22:48:25.558Z,26.10
2018-07-31T22:50:54.714Z,26.00
2018-07-31T22:53:23.575Z,26.10
2018-07-31T22:55:52.462Z,26.10
2018-07-31T22:58:21.366Z,26.00
2018-07-31T23:00:50.302Z,26.00
2018-07-31T23:03:19.181Z,26.00
2018-07-31T23:05:48.081Z,26.00
2018-07-31T23:08:16.977Z,26.00
2018-07-31T23:10:45.880Z,25.80
2018-07-31T23:13:14.782Z,25.70
2018-07-31T23:15:43.687Z,25.70
2018-07-31T23:18:12.586Z,25.70
2018-07-31T23:20:41.515Z,25.70
2018-07-31T23:23:10.398Z,25.70
2018-07-31T23:25:39.322Z,25.60
2018-07-31T23:28:08.216Z,25.60
2018-07-31T23:30:37.098Z,25.60
2018-07-31T23:33:05.971Z,25.60
2018-07-31T23:35:34.866Z,25.50
2018-07-31T23:38:03.926Z,25.50
2018-07-31T23:40:32.822Z,25.40
2018-07-31T23:43:01.791Z,25.40
2018-07-31T23:45:30.797Z,25.30
2018-07-31T23:47:59.858Z,25.20
2018-07-31T23:50:28.778Z,25.10
2018-07-31T23:52:57.689Z,24.90
2018-07-31T23:55:26.629Z,24.90
2018-07-31T23:57:55.502Z,24.80
